createdAt,value
2017-11-30T00:02:20.219Z,15.77
2017-11-30T00:04:48.318Z,17.97
2017-11-30T00:07:16.620Z,16.77
2017-11-30T00:09:44.782Z,16.70
2017-11-30T00:12:13.508Z,15.30
2017-11-30T00:14:41.637Z,16.50
2017-11-30T00:17:09.737Z,17.60
2017-11-30T00:19:37.860Z,16.10
2017-11-30T00:22:07.225Z,17.23
2017-11-30T00:24:36.166Z,16.37
2017-11-30T00:27:04.513Z,16.47
2017-11-30T00:29:32.601Z,15.33
2017-11-30T00:32:00.709Z,17.20
2017-11-30T00:34:28.811Z,15.40
2017-11-30T00:36:56.929Z,15.67
2017-11-30T00:39:25.005Z,16.30
2017-11-30T00:41:53.103Z,15.17
2017-11-30T00:44:32.920Z,16.80
2017-11-30T00:47:01.016Z,16.67
2017-11-30T00:49:29.105Z,17.17
2017-11-30T00:51:57.184Z,18.43
2017-11-30T00:54:25.294Z,17.43
2017-11-30T00:56:53.370Z,15.30
2017-11-30T00:59:21.457Z,17.00
2017-11-30T01:01:49.699Z,16.33
2017-11-30T01:04:17.786Z,15.57
2017-11-30T01:06:45.871Z,16.73
2017-11-30T01:09:13.965Z,15.63
2017-11-30T01:11:42.058Z,16.57
2017-11-30T01:14:10.297Z,16.33
2017-11-30T01:16:38.673Z,16.47
2017-11-30T01:19:06.757Z,17.77
2017-11-30T01:21:34.839Z,18.80
2017-11-30T01:24:02.916Z,15.87
2017-11-30T01:26:31.024Z,16.97
2017-11-30T01:29:00.006Z,19.20
2017-11-30T01:31:28.180Z,18.40
2017-11-30T01:33:57.253Z,18.07
2017-11-30T01:36:25.327Z,16.80
2017-11-30T01:38:53.417Z,17.30
2017-11-30T01:41:21.497Z,17.47
2017-11-30T01:43:49.624Z,18.57
2017-11-30T01:46:17.714Z,18.90
2017-11-30T01:48:45.782Z,18.90
2017-11-30T01:51:14.212Z,17.47
2017-11-30T01:53:42.377Z,18.80
2017-11-30T01:56:10.497Z,19.33
2017-11-30T01:58:38.580Z,18.93
2017-11-30T02:01:06.682Z,19.80
2017-11-30T02:03:34.793Z,17.97
2017-11-30T02:06:03.393Z,19.40
2017-11-30T02:08:31.658Z,21.10
2017-11-30T02:10:59.728Z,19.07
2017-11-30T02:13:28.005Z,20.57
2017-11-30T02:15:56.098Z,19.13
2017-11-30T02:18:24.205Z,20.00
2017-11-30T02:20:52.511Z,20.30
2017-11-30T02:23:20.662Z,21.10
2017-11-30T02:25:48.776Z,20.70
2017-11-30T02:28:17.068Z,21.20
2017-11-30T02:30:45.381Z,20.87
2017-11-30T02:33:13.489Z,21.83
2017-11-30T02:35:41.584Z,22.17
2017-11-30T02:38:09.829Z,21.30
2017-11-30T02:40:38.771Z,21.77
2017-11-30T02:43:06.863Z,24.10
2017-11-30T02:45:34.976Z,23.00
2017-11-30T02:48:03.058Z,23.90
2017-11-30T02:50:31.468Z,26.87
2017-11-30T02:52:59.536Z,25.90
2017-11-30T02:55:27.654Z,27.07
2017-11-30T02:57:55.749Z,28.00
2017-11-30T03:00:23.977Z,29.80
2017-11-30T03:02:52.081Z,29.77
2017-11-30T03:05:20.928Z,31.27
2017-11-30T03:07:50.216Z,34.07
2017-11-30T03:10:18.296Z,32.33
2017-11-30T03:12:46.450Z,33.37
2017-11-30T03:15:14.516Z,32.53
2017-11-30T03:17:44.041Z,31.50
2017-11-30T03:20:12.241Z,32.47
2017-11-30T03:22:41.286Z,32.00
2017-11-30T03:25:10.213Z,31.70
2017-11-30T03:27:38.308Z,34.00
2017-11-30T03:30:07.154Z,32.30
2017-11-30T03:32:35.228Z,38.37
2017-11-30T03:35:03.590Z,36.77
2017-11-30T03:37:31.672Z,36.70
2017-11-30T03:39:59.816Z,36.70
2017-11-30T03:42:27.930Z,38.33
2017-11-30T03:44:57.142Z,40.07
2017-11-30T03:47:25.377Z,39.87
2017-11-30T03:49:54.118Z,41.43
2017-11-30T03:52:22.249Z,42.17
2017-11-30T03:54:50.344Z,40.73
2017-11-30T03:57:18.459Z,44.00
2017-11-30T03:59:46.674Z,43.13
2017-11-30T04:02:15.129Z,46.00
2017-11-30T04:04:43.228Z,46.47
2017-11-30T04:07:11.308Z,43.93
2017-11-30T04:09:39.564Z,43.63
2017-11-30T04:12:08.416Z,40.43
2017-11-30T04:14:37.284Z,43.10
2017-11-30T04:17:05.365Z,43.40
2017-11-30T04:19:33.522Z,43.13
2017-11-30T04:22:01.742Z,38.50
2017-11-30T04:24:29.790Z,42.57
2017-11-30T04:26:57.885Z,40.97
2017-11-30T04:29:25.997Z,44.83
2017-11-30T04:31:55.222Z,44.47
2017-11-30T04:34:23.385Z,41.40
2017-11-30T04:36:51.504Z,42.60
2017-11-30T04:39:19.673Z,45.17
2017-11-30T04:41:47.793Z,43.57
2017-11-30T04:44:16.369Z,43.73
2017-11-30T04:46:44.452Z,38.80
2017-11-30T04:49:12.553Z,41.00
2017-11-30T04:51:40.665Z,44.20
2017-11-30T04:54:08.733Z,42.90
2017-11-30T04:56:36.841Z,42.77
2017-11-30T04:59:04.917Z,45.87
2017-11-30T05:01:33.041Z,46.03
2017-11-30T05:04:01.175Z,40.87
2017-11-30T05:06:29.242Z,42.60
2017-11-30T05:08:57.342Z,42.50
2017-11-30T05:11:26.246Z,42.03
2017-11-30T05:13:54.513Z,40.37
2017-11-30T05:16:23.365Z,39.77
2017-11-30T05:18:51.468Z,43.17
2017-11-30T05:21:20.328Z,39.33
2017-11-30T05:23:48.533Z,40.57
2017-11-30T05:26:17.060Z,43.40
2017-11-30T05:28:45.372Z,44.70
2017-11-30T05:31:13.461Z,41.13
2017-11-30T05:33:41.545Z,42.50
2017-11-30T05:36:10.384Z,42.57
2017-11-30T05:38:38.541Z,41.17
2017-11-30T05:41:06.733Z,42.20
2017-11-30T05:43:34.822Z,42.27
2017-11-30T05:46:02.964Z,42.77
2017-11-30T05:48:31.051Z,41.40
2017-11-30T05:50:59.134Z,39.80
2017-11-30T05:53:27.233Z,42.33
2017-11-30T05:55:55.302Z,40.73
2017-11-30T05:58:23.401Z,42.73
2017-11-30T06:00:51.508Z,43.40
2017-11-30T06:03:19.581Z,42.70
2017-11-30T06:05:47.813Z,44.23
2017-11-30T06:08:17.033Z,40.77
2017-11-30T06:10:45.137Z,43.27
2017-11-30T06:13:13.212Z,43.60
2017-11-30T06:15:41.309Z,43.17
2017-11-30T06:18:09.449Z,39.37
2017-11-30T06:20:37.532Z,43.00
2017-11-30T06:23:05.662Z,43.60
2017-11-30T06:25:33.735Z,43.40
2017-11-30T06:28:01.849Z,41.80
2017-11-30T06:30:30.105Z,45.63
2017-11-30T06:32:58.857Z,42.57
2017-11-30T06:35:27.698Z,45.30
2017-11-30T06:37:55.820Z,48.93
2017-11-30T06:40:24.665Z,43.90
2017-11-30T06:42:52.769Z,43.73
2017-11-30T06:45:21.614Z,44.57
2017-11-30T06:47:49.814Z,47.03
2017-11-30T06:50:18.048Z,43.70
2017-11-30T06:52:46.143Z,42.27
2017-11-30T06:55:14.233Z,42.60
2017-11-30T06:57:42.345Z,40.17
2017-11-30T07:00:10.504Z,42.73
2017-11-30T07:02:39.357Z,44.40
2017-11-30T07:05:07.449Z,41.07
2017-11-30T07:07:35.528Z,41.77
2017-11-30T07:10:04.369Z,43.30
2017-11-30T07:12:32.464Z,44.70
2017-11-30T07:15:01.557Z,40.50
2017-11-30T07:17:29.645Z,49.40
2017-11-30T07:19:57.789Z,41.93
2017-11-30T07:22:25.898Z,43.70
2017-11-30T07:24:54.251Z,42.03
2017-11-30T07:27:22.464Z,41.00
2017-11-30T07:29:51.886Z,43.17
2017-11-30T07:32:20.726Z,43.57
2017-11-30T07:34:48.982Z,42.00
2017-11-30T07:37:17.177Z,41.10
2017-11-30T07:39:45.468Z,41.90
2017-11-30T07:42:13.546Z,40.17
2017-11-30T07:44:41.642Z,40.23
2017-11-30T07:47:10.481Z,39.00
2017-11-30T07:49:38.609Z,39.57
2017-11-30T07:52:07.453Z,39.17
2017-11-30T07:54:35.564Z,43.00
2017-11-30T07:57:05.118Z,45.97
2017-11-30T07:59:33.211Z,44.07
2017-11-30T08:02:01.684Z,42.10
2017-11-30T08:04:29.872Z,41.20
2017-11-30T08:06:57.973Z,43.03
2017-11-30T08:09:27.040Z,39.00
2017-11-30T08:11:55.112Z,40.10
2017-11-30T08:14:23.573Z,40.07
2017-11-30T08:16:51.679Z,40.27
2017-11-30T08:19:20.567Z,41.57
2017-11-30T08:21:48.661Z,43.97
2017-11-30T08:24:16.773Z,39.47
2017-11-30T08:26:44.865Z,39.87
2017-11-30T08:29:13.339Z,40.37
2017-11-30T08:31:42.419Z,36.47
2017-11-30T08:34:11.720Z,38.83
2017-11-30T08:36:39.851Z,39.33
2017-11-30T08:39:09.132Z,40.67
2017-11-30T08:41:37.434Z,41.30
2017-11-30T08:44:05.533Z,40.97
2017-11-30T08:46:33.658Z,39.40
2017-11-30T08:49:01.732Z,38.83
2017-11-30T08:51:29.935Z,39.67
2017-11-30T08:53:58.006Z,40.57
2017-11-30T08:56:26.294Z,36.97
2017-11-30T08:58:54.376Z,38.80
2017-11-30T09:01:22.504Z,40.27
2017-11-30T09:03:51.401Z,39.80
2017-11-30T09:06:19.505Z,37.73
2017-11-30T09:08:47.589Z,40.40
2017-11-30T09:11:15.672Z,40.00
2017-11-30T09:13:43.853Z,40.07
2017-11-30T09:16:11.953Z,41.73
2017-11-30T09:18:40.036Z,40.03
2017-11-30T09:21:08.897Z,40.47
2017-11-30T09:23:37.005Z,39.57
2017-11-30T09:26:05.872Z,43.27
2017-11-30T09:28:33.968Z,37.87
2017-11-30T09:31:02.067Z,36.53
2017-11-30T09:33:30.158Z,39.00
2017-11-30T09:35:58.254Z,40.00
2017-11-30T09:38:26.388Z,37.30
2017-11-30T09:40:54.461Z,38.63
2017-11-30T09:43:22.637Z,39.60
2017-11-30T09:45:50.733Z,37.00
2017-11-30T09:48:18.873Z,35.67
2017-11-30T09:50:46.958Z,34.33
2017-11-30T09:53:15.049Z,35.87
2017-11-30T09:55:43.141Z,35.20
2017-11-30T09:58:11.300Z,33.10
2017-11-30T10:00:39.430Z,33.60
2017-11-30T10:03:07.950Z,34.37
2017-11-30T10:05:36.023Z,34.80
2017-11-30T10:08:04.116Z,35.57
2017-11-30T10:10:32.192Z,36.13
2017-11-30T10:13:00.326Z,37.30
2017-11-30T10:15:28.416Z,34.70
2017-11-30T10:17:56.486Z,33.17
2017-11-30T10:20:24.657Z,32.20
2017-11-30T10:22:52.745Z,32.80
2017-11-30T10:25:20.817Z,33.40
2017-11-30T10:27:48.909Z,33.50
2017-11-30T10:30:17.142Z,34.20
2017-11-30T10:32:45.357Z,31.87
2017-11-30T10:35:13.443Z,33.13
2017-11-30T10:37:41.553Z,34.60
2017-11-30T10:40:09.848Z,34.77
2017-11-30T10:42:37.998Z,32.73
2017-11-30T10:45:06.156Z,33.23
2017-11-30T10:47:34.631Z,31.07
2017-11-30T10:50:03.916Z,30.77
2017-11-30T10:52:32.040Z,29.60
2017-11-30T10:55:00.177Z,30.60
2017-11-30T10:57:28.268Z,29.13
2017-11-30T10:59:56.333Z,29.13
2017-11-30T11:02:25.193Z,29.17
2017-11-30T11:04:53.530Z,29.80
2017-11-30T11:07:21.672Z,31.53
2017-11-30T11:09:49.764Z,31.50
2017-11-30T11:12:17.838Z,28.37
2017-11-30T11:14:45.937Z,30.47
2017-11-30T11:17:14.020Z,30.50
2017-11-30T11:19:42.269Z,28.17
2017-11-30T11:22:10.388Z,29.73
2017-11-30T11:24:38.473Z,30.33
2017-11-30T11:27:06.563Z,29.47
2017-11-30T11:29:34.650Z,29.07
2017-11-30T11:32:02.917Z,29.13
2017-11-30T11:34:31.001Z,31.07
2017-11-30T11:36:59.493Z,31.80
2017-11-30T11:39:27.576Z,29.97
2017-11-30T11:41:55.653Z,31.03
2017-11-30T11:44:23.741Z,30.07
2017-11-30T11:46:52.606Z,29.40
2017-11-30T11:49:20.672Z,28.50
2017-11-30T11:51:48.753Z,27.57
2017-11-30T11:54:16.845Z,28.03
2017-11-30T11:56:45.010Z,28.37
2017-11-30T11:59:14.029Z,28.60
2017-11-30T12:01:42.274Z,28.80
2017-11-30T12:04:10.548Z,28.43
2017-11-30T12:06:38.625Z,25.10
2017-11-30T12:09:06.885Z,24.40
2017-11-30T12:11:35.025Z,25.03
2017-11-30T12:14:03.117Z,26.13
2017-11-30T12:16:31.189Z,26.73
2017-11-30T12:18:59.285Z,25.63
2017-11-30T12:21:27.362Z,24.07
2017-11-30T12:23:55.451Z,24.57
2017-11-30T12:26:23.529Z,23.20
2017-11-30T12:28:52.398Z,21.90
2017-11-30T12:31:20.484Z,22.67
2017-11-30T12:33:48.572Z,24.03
2017-11-30T12:36:16.676Z,23.63
2017-11-30T12:38:44.781Z,22.33
2017-11-30T12:41:13.164Z,21.87
2017-11-30T12:43:41.289Z,20.77
2017-11-30T12:46:09.357Z,20.10
2017-11-30T12:48:37.520Z,20.23
2017-11-30T12:51:05.635Z,19.63
2017-11-30T12:53:33.997Z,20.70
2017-11-30T12:56:02.082Z,21.80
2017-11-30T12:58:30.253Z,20.60
2017-11-30T13:00:59.396Z,20.30
2017-11-30T13:03:27.584Z,19.50
2017-11-30T13:05:55.659Z,18.57
2017-11-30T13:08:24.080Z,18.73
2017-11-30T13:10:52.175Z,19.10
2017-11-30T13:13:20.901Z,18.23
2017-11-30T13:15:49.022Z,17.57
2017-11-30T13:18:17.148Z,17.07
2017-11-30T13:20:45.243Z,17.57
2017-11-30T13:23:13.471Z,16.60
2017-11-30T13:25:42.408Z,18.53
2017-11-30T13:28:10.509Z,18.33
2017-11-30T13:30:38.595Z,18.80
2017-11-30T13:33:06.723Z,16.63
2017-11-30T13:35:34.836Z,19.40
2017-11-30T13:38:03.045Z,16.63
2017-11-30T13:40:31.129Z,15.77
2017-11-30T13:42:59.206Z,16.53
2017-11-30T13:45:27.322Z,15.80
2017-11-30T13:47:56.640Z,13.73
2017-11-30T13:50:24.879Z,15.20
2017-11-30T13:52:53.019Z,15.13
2017-11-30T13:55:21.227Z,15.60
2017-11-30T13:57:49.335Z,16.80
2017-11-30T14:00:17.519Z,16.53
2017-11-30T14:02:46.425Z,14.67
2017-11-30T14:05:14.524Z,16.07
2017-11-30T14:07:42.591Z,14.77
2017-11-30T14:10:10.738Z,16.93
2017-11-30T14:12:39.571Z,15.10
2017-11-30T14:15:07.705Z,13.10
2017-11-30T14:17:36.236Z,14.10
2017-11-30T14:20:04.330Z,14.20
2017-11-30T14:22:32.413Z,13.77
2017-11-30T14:25:01.303Z,13.10
2017-11-30T14:27:30.209Z,15.27
2017-11-30T14:29:59.230Z,15.70
2017-11-30T14:32:27.320Z,15.50
2017-11-30T14:34:55.628Z,15.90
2017-11-30T14:37:23.744Z,15.70
2017-11-30T14:39:51.925Z,15.93
2017-11-30T14:42:20.025Z,16.23
2017-11-30T14:44:48.292Z,14.80
2017-11-30T14:47:16.440Z,14.83
2017-11-30T14:49:44.568Z,15.40
2017-11-30T14:52:12.829Z,15.37
2017-11-30T14:54:40.909Z,13.60
2017-11-30T14:57:09.060Z,13.60
2017-11-30T14:59:37.203Z,15.00
2017-11-30T15:02:05.279Z,14.67
2017-11-30T15:04:33.693Z,14.13
2017-11-30T15:07:01.875Z,15.63
2017-11-30T15:09:30.443Z,13.47
2017-11-30T15:11:58.553Z,15.83
2017-11-30T15:14:26.683Z,16.00
2017-11-30T15:16:55.792Z,15.37
2017-11-30T15:19:24.198Z,16.20
2017-11-30T15:21:52.271Z,15.83
2017-11-30T15:24:20.543Z,17.40
2017-11-30T15:26:48.628Z,16.03
2017-11-30T15:29:17.479Z,17.07
2017-11-30T15:31:45.565Z,17.07
2017-11-30T15:34:13.719Z,16.53
2017-11-30T15:36:41.807Z,16.97
2017-11-30T15:39:09.907Z,18.20
2017-11-30T15:41:38.752Z,19.70
2017-11-30T15:44:06.984Z,20.50
2017-11-30T15:46:35.068Z,19.40
2017-11-30T15:49:03.144Z,18.40
2017-11-30T15:51:31.271Z,21.83
2017-11-30T15:54:00.036Z,22.33
2017-11-30T15:56:28.215Z,18.93
2017-11-30T15:58:56.483Z,21.37
2017-11-30T16:01:24.622Z,19.10
2017-11-30T16:03:52.783Z,21.70
2017-11-30T16:06:20.862Z,20.07
2017-11-30T16:08:49.695Z,21.93
2017-11-30T16:11:18.358Z,23.53
2017-11-30T16:13:46.436Z,20.13
2017-11-30T16:16:15.119Z,22.50
2017-11-30T16:18:44.011Z,22.00
2017-11-30T16:21:12.133Z,22.00
2017-11-30T16:23:40.241Z,23.60
2017-11-30T16:26:08.332Z,21.47
2017-11-30T16:28:36.404Z,20.87
2017-11-30T16:31:04.508Z,21.30
2017-11-30T16:33:32.589Z,21.10
2017-11-30T16:36:00.686Z,21.13
2017-11-30T16:38:28.775Z,22.90
2017-11-30T16:40:56.943Z,20.30
2017-11-30T16:43:25.047Z,20.47
2017-11-30T16:45:53.224Z,22.40
2017-11-30T16:48:21.303Z,19.73
2017-11-30T16:50:49.387Z,21.20
2017-11-30T16:53:17.564Z,21.20
2017-11-30T16:55:45.632Z,22.20
2017-11-30T16:58:13.723Z,19.30
2017-11-30T17:00:41.813Z,20.37
2017-11-30T17:03:10.657Z,22.00
2017-11-30T17:05:39.076Z,18.50
2017-11-30T17:08:08.157Z,19.17
2017-11-30T17:10:36.924Z,19.80
2017-11-30T17:13:05.016Z,20.33
2017-11-30T17:15:33.317Z,20.23
2017-11-30T17:18:03.161Z,21.00
2017-11-30T17:20:31.233Z,21.93
2017-11-30T17:23:01.297Z,20.00
2017-11-30T17:25:29.401Z,22.93
2017-11-30T17:27:57.499Z,21.17
2017-11-30T17:30:25.594Z,20.73
2017-11-30T17:32:53.666Z,21.40
2017-11-30T17:35:21.752Z,21.93
2017-11-30T17:37:49.823Z,23.20
2017-11-30T17:40:18.009Z,22.30
2017-11-30T17:42:46.071Z,20.30
2017-11-30T17:45:14.182Z,19.30
2017-11-30T17:47:42.252Z,17.27
2017-11-30T17:50:10.397Z,18.10
2017-11-30T17:52:38.536Z,18.23
2017-11-30T17:55:06.607Z,17.53
2017-11-30T17:57:34.764Z,17.70
2017-11-30T18:00:02.835Z,18.27
2017-11-30T18:02:30.926Z,16.73
2017-11-30T18:04:59.041Z,17.30
2017-11-30T18:07:27.895Z,17.67
2017-11-30T18:09:55.981Z,18.00
2017-11-30T18:12:24.068Z,17.43
2017-11-30T18:14:52.140Z,18.77
2017-11-30T18:17:21.011Z,17.50
2017-11-30T18:19:49.099Z,16.63
2017-11-30T18:22:17.204Z,16.87
2017-11-30T18:24:45.305Z,18.50
2017-11-30T18:27:13.390Z,18.50
2017-11-30T18:29:41.470Z,19.53
2017-11-30T18:32:09.560Z,19.53
2017-11-30T18:34:37.651Z,18.60
2017-11-30T18:37:06.502Z,19.00
2017-11-30T18:39:34.614Z,19.47
2017-11-30T18:42:02.696Z,20.40
2017-11-30T18:44:30.792Z,19.37
2017-11-30T18:46:58.880Z,21.27
2017-11-30T18:49:26.993Z,20.77
2017-11-30T18:51:55.855Z,21.30
2017-11-30T18:54:23.935Z,18.37
2017-11-30T18:56:52.036Z,20.40
2017-11-30T18:59:20.944Z,18.93
2017-11-30T19:01:49.025Z,19.63
2017-11-30T19:04:17.124Z,21.10
2017-11-30T19:06:45.202Z,20.60
2017-11-30T19:09:13.291Z,22.37
2017-11-30T19:11:41.408Z,22.20
2017-11-30T19:14:09.518Z,22.80
2017-11-30T19:16:37.589Z,22.13
2017-11-30T19:19:05.712Z,26.23
2017-11-30T19:21:33.814Z,24.03
2017-11-30T19:24:01.928Z,22.77
2017-11-30T19:26:30.081Z,24.57
2017-11-30T19:28:58.193Z,20.97
2017-11-30T19:31:27.051Z,36.40
2017-11-30T19:33:55.167Z,19.67
2017-11-30T19:36:24.206Z,21.40
2017-11-30T19:38:52.323Z,20.27
2017-11-30T19:41:21.180Z,20.40
2017-11-30T19:43:49.269Z,23.00
2017-11-30T19:46:17.415Z,20.93
2017-11-30T19:48:45.511Z,20.03
2017-11-30T19:51:13.583Z,21.93
2017-11-30T19:53:41.700Z,23.50
2017-11-30T19:56:09.780Z,24.10
2017-11-30T19:58:38.037Z,21.83
2017-11-30T20:01:06.230Z,31.00
2017-11-30T20:03:34.291Z,23.50
2017-11-30T20:06:02.448Z,22.77
2017-11-30T20:08:31.303Z,22.93
2017-11-30T20:10:59.451Z,29.10
2017-11-30T20:13:27.527Z,26.87
2017-11-30T20:15:55.612Z,24.30
2017-11-30T20:18:23.703Z,28.93
2017-11-30T20:20:52.688Z,22.13
2017-11-30T20:23:20.792Z,22.30
2017-11-30T20:25:49.057Z,23.43
2017-11-30T20:28:18.336Z,23.30
2017-11-30T20:30:46.419Z,22.43
2017-11-30T20:33:14.509Z,23.30
2017-11-30T20:35:43.376Z,22.70
2017-11-30T20:38:11.450Z,20.47
2017-11-30T20:40:39.559Z,21.90
2017-11-30T20:43:07.698Z,24.10
2017-11-30T20:45:35.795Z,21.37
2017-11-30T20:48:03.875Z,20.37
2017-11-30T20:50:32.024Z,20.30
2017-11-30T20:53:00.170Z,21.33
2017-11-30T20:55:28.254Z,20.67
2017-11-30T20:57:56.348Z,18.63
2017-11-30T21:00:25.229Z,18.90
2017-11-30T21:02:53.353Z,18.40
2017-11-30T21:05:21.431Z,17.80
2017-11-30T21:07:49.542Z,18.50
2017-11-30T21:10:17.627Z,18.60
2017-11-30T21:12:46.529Z,19.10
2017-11-30T21:15:14.649Z,18.50
2017-11-30T21:17:42.743Z,19.80
2017-11-30T21:20:10.838Z,19.43
2017-11-30T21:22:39.927Z,25.27
2017-11-30T21:25:08.796Z,20.40
2017-11-30T21:27:37.071Z,18.60
2017-11-30T21:30:05.192Z,18.80
2017-11-30T21:32:33.303Z,19.10
2017-11-30T21:35:01.457Z,18.73
2017-11-30T21:37:29.555Z,21.03
2017-11-30T21:39:57.672Z,19.53
2017-11-30T21:42:26.582Z,19.47
2017-11-30T21:44:55.428Z,19.07
2017-11-30T21:47:23.515Z,20.40
2017-11-30T21:49:52.404Z,18.73
2017-11-30T21:52:20.481Z,19.13
2017-11-30T21:54:48.555Z,19.40
2017-11-30T21:57:16.704Z,21.50
2017-11-30T21:59:44.801Z,25.87
2017-11-30T22:02:13.664Z,22.40
2017-11-30T22:04:41.744Z,24.00
2017-11-30T22:07:09.861Z,20.67
2017-11-30T22:09:37.935Z,19.47
2017-11-30T22:12:06.112Z,21.40
2017-11-30T22:14:34.228Z,21.67
2017-11-30T22:17:02.344Z,20.37
2017-11-30T22:19:30.455Z,20.90
2017-11-30T22:21:59.486Z,21.80
2017-11-30T22:24:28.631Z,21.17
2017-11-30T22:26:57.168Z,21.13
2017-11-30T22:29:25.300Z,20.80
2017-11-30T22:31:53.375Z,22.27
2017-11-30T22:34:21.529Z,20.47
2017-11-30T22:36:49.619Z,21.40
2017-11-30T22:39:17.720Z,23.40
2017-11-30T22:41:45.791Z,22.03
2017-11-30T22:44:13.909Z,21.63
2017-11-30T22:46:41.986Z,22.67
2017-11-30T22:49:10.063Z,21.97
2017-11-30T22:51:38.152Z,22.80
2017-11-30T22:54:06.226Z,24.77
2017-11-30T22:56:34.314Z,25.93
2017-11-30T22:59:02.600Z,24.60
2017-11-30T23:01:31.206Z,25.27
2017-11-30T23:04:01.103Z,22.77
2017-11-30T23:06:29.999Z,24.30
2017-11-30T23:08:58.863Z,24.10
2017-11-30T23:11:27.285Z,24.63
2017-11-30T23:13:56.208Z,23.20
2017-11-30T23:16:24.299Z,22.57
2017-11-30T23:18:52.463Z,24.00
2017-11-30T23:21:20.574Z,23.63
2017-11-30T23:23:49.597Z,24.83
2017-11-30T23:26:17.776Z,22.07
2017-11-30T23:28:46.881Z,22.73
2017-11-30T23:31:14.993Z,24.60
2017-11-30T23:33:44.208Z,26.90
2017-11-30T23:36:12.297Z,23.80
2017-11-30T23:38:41.460Z,26.30
2017-11-30T23:41:09.670Z,23.90
2017-11-30T23:43:37.756Z,28.83
2017-11-30T23:46:05.854Z,25.80
2017-11-30T23:48:33.960Z,27.00
2017-11-30T23:51:02.045Z,27.47
2017-11-30T23:53:30.123Z,27.87
2017-11-30T23:55:58.991Z,28.70
2017-11-30T23:58:27.151Z,26.13
